Terminal Aerodrome Forecast
Issued by NWS

Home | Current Version | Previous Version | Text Only | Print | Product List | Glossary On
Versions: 1 2 3 4 5 6 7 8 9 10 11 12 13 14 15 16 17 18 19 20
000
FTUS41 KPBZ 172300
TAFLBE
TAF
KLBE 172339Z 1800/1824 VRB03KT P6SM SKC
     FM181500 34005KT P6SM SKC=

USA.gov is the U.S. government's official web portal to all federal, state and local government web resources and services.